sensor_id;sensor_type;location;lat;lon;timestamp;P1;durP1;ratioP1;P2;durP2;ratioP2
10769;SDS011;5437;50.852;4.438;2022-11-11T00:00:10;8.65;;;6.32;;
10769;SDS011;5437;50.852;4.438;2022-11-11T00:02:36;9.27;;;6.75;;
10769;SDS011;5437;50.852;4.438;2022-11-11T00:05:02;10.13;;;7.55;;
10769;SDS011;5437;50.852;4.438;2022-11-11T00:07:28;12.30;;;7.68;;
10769;SDS011;5437;50.852;4.438;2022-11-11T00:09:55;10.35;;;7.40;;
10769;SDS011;5437;50.852;4.438;2022-11-11T00:12:21;11.10;;;7.60;;
10769;SDS011;5437;50.852;4.438;2022-11-11T00:14:47;10.43;;;7.35;;
10769;SDS011;5437;50.852;4.438;2022-11-11T00:17:13;8.38;;;7.28;;
10769;SDS011;5437;50.852;4.438;2022-11-11T00:19:58;11.75;;;7.50;;
10769;SDS011;5437;50.852;4.438;2022-11-11T00:22:42;10.23;;;7.18;;
10769;SDS011;5437;50.852;4.438;2022-11-11T00:25:27;8.25;;;6.68;;
10769;SDS011;5437;50.852;4.438;2022-11-11T00:27:53;11.90;;;7.20;;
10769;SDS011;5437;50.852;4.438;2022-11-11T00:30:19;10.25;;;6.95;;
10769;SDS011;5437;50.852;4.438;2022-11-11T00:32:45;8.15;;;6.93;;
10769;SDS011;5437;50.852;4.438;2022-11-11T00:35:11;9.32;;;6.72;;
10769;SDS011;5437;50.852;4.438;2022-11-11T00:38:04;10.27;;;6.93;;
10769;SDS011;5437;50.852;4.438;2022-11-11T00:40:30;10.02;;;7.13;;
10769;SDS011;5437;50.852;4.438;2022-11-11T00:42:56;9.35;;;6.90;;
10769;SDS011;5437;50.852;4.438;2022-11-11T00:45:22;12.20;;;7.45;;
10769;SDS011;5437;50.852;4.438;2022-11-11T00:47:48;9.15;;;7.85;;
10769;SDS011;5437;50.852;4.438;2022-11-11T00:50:33;10.98;;;8.60;;
10769;SDS011;5437;50.852;4.438;2022-11-11T00:53:19;13.63;;;9.15;;
10769;SDS011;5437;50.852;4.438;2022-11-11T00:55:45;10.70;;;8.40;;
10769;SDS011;5437;50.852;4.438;2022-11-11T00:58:11;12.77;;;9.05;;
10769;SDS011;5437;50.852;4.438;2022-11-11T01:00:37;10.60;;;8.60;;
10769;SDS011;5437;50.852;4.438;2022-11-11T01:03:03;10.60;;;8.32;;
10769;SDS011;5437;50.852;4.438;2022-11-11T01:05:29;14.02;;;8.52;;
10769;SDS011;5437;50.852;4.438;2022-11-11T01:07:55;11.50;;;8.60;;
10769;SDS011;5437;50.852;4.438;2022-11-11T01:10:21;12.10;;;8.90;;
10769;SDS011;5437;50.852;4.438;2022-11-11T01:13:03;9.63;;;8.35;;
10769;SDS011;5437;50.852;4.438;2022-11-11T01:15:36;13.35;;;9.90;;
10769;SDS011;5437;50.852;4.438;2022-11-11T01:18:02;11.55;;;8.65;;
10769;SDS011;5437;50.852;4.438;2022-11-11T01:20:28;13.65;;;9.18;;
10769;SDS011;5437;50.852;4.438;2022-11-11T01:22:54;11.57;;;8.52;;
10769;SDS011;5437;50.852;4.438;2022-11-11T01:25:20;10.23;;;7.63;;
10769;SDS011;5437;50.852;4.438;2022-11-11T01:27:46;11.13;;;8.52;;
10769;SDS011;5437;50.852;4.438;2022-11-11T01:30:12;10.05;;;8.10;;
10769;SDS011;5437;50.852;4.438;2022-11-11T01:32:39;11.10;;;7.72;;
10769;SDS011;5437;50.852;4.438;2022-11-11T01:35:05;9.27;;;7.45;;
10769;SDS011;5437;50.852;4.438;2022-11-11T01:37:32;8.07;;;7.22;;
10769;SDS011;5437;50.852;4.438;2022-11-11T01:39:58;9.35;;;7.25;;
10769;SDS011;5437;50.852;4.438;2022-11-11T01:42:24;10.35;;;7.55;;
10769;SDS011;5437;50.852;4.438;2022-11-11T01:44:50;10.38;;;7.10;;
10769;SDS011;5437;50.852;4.438;2022-11-11T01:47:16;10.57;;;7.43;;
10769;SDS011;5437;50.852;4.438;2022-11-11T01:49:50;9.35;;;7.13;;
10769;SDS011;5437;50.852;4.438;2022-11-11T01:54:48;8.77;;;6.90;;
10769;SDS011;5437;50.852;4.438;2022-11-11T01:59:42;8.75;;;6.60;;
10769;SDS011;5437;50.852;4.438;2022-11-11T02:02:20;8.02;;;6.75;;
10769;SDS011;5437;50.852;4.438;2022-11-11T02:04:47;9.68;;;6.85;;
10769;SDS011;5437;50.852;4.438;2022-11-11T02:07:33;7.65;;;5.70;;
10769;SDS011;5437;50.852;4.438;2022-11-11T02:10:00;8.48;;;6.25;;
10769;SDS011;5437;50.852;4.438;2022-11-11T02:12:27;8.27;;;5.78;;
10769;SDS011;5437;50.852;4.438;2022-11-11T02:15:11;8.18;;;6.28;;
10769;SDS011;5437;50.852;4.438;2022-11-11T02:17:38;9.02;;;6.70;;
10769;SDS011;5437;50.852;4.438;2022-11-11T02:20:04;8.77;;;5.75;;
10769;SDS011;5437;50.852;4.438;2022-11-11T02:25:07;10.52;;;6.75;;
10769;SDS011;5437;50.852;4.438;2022-11-11T02:27:34;8.90;;;6.35;;
10769;SDS011;5437;50.852;4.438;2022-11-11T02:30:02;10.80;;;6.00;;
10769;SDS011;5437;50.852;4.438;2022-11-11T02:32:29;9.95;;;6.85;;
10769;SDS011;5437;50.852;4.438;2022-11-11T02:34:55;8.05;;;6.47;;
10769;SDS011;5437;50.852;4.438;2022-11-11T02:37:22;8.60;;;6.25;;
10769;SDS011;5437;50.852;4.438;2022-11-11T02:39:49;10.55;;;6.78;;
10769;SDS011;5437;50.852;4.438;2022-11-11T02:42:17;10.48;;;7.15;;
10769;SDS011;5437;50.852;4.438;2022-11-11T02:44:44;7.68;;;6.18;;
10769;SDS011;5437;50.852;4.438;2022-11-11T02:47:10;9.27;;;6.60;;
10769;SDS011;5437;50.852;4.438;2022-11-11T02:49:36;9.70;;;6.53;;
10769;SDS011;5437;50.852;4.438;2022-11-11T02:52:02;7.85;;;7.05;;
10769;SDS011;5437;50.852;4.438;2022-11-11T02:54:28;8.40;;;7.00;;
10769;SDS011;5437;50.852;4.438;2022-11-11T02:56:54;9.50;;;6.38;;
10769;SDS011;5437;50.852;4.438;2022-11-11T02:59:36;8.23;;;6.60;;
10769;SDS011;5437;50.852;4.438;2022-11-11T03:02:02;10.20;;;7.05;;
10769;SDS011;5437;50.852;4.438;2022-11-11T03:04:28;8.32;;;7.32;;
10769;SDS011;5437;50.852;4.438;2022-11-11T03:06:54;11.38;;;6.97;;
10769;SDS011;5437;50.852;4.438;2022-11-11T03:09:21;9.63;;;7.32;;
10769;SDS011;5437;50.852;4.438;2022-11-11T03:11:47;8.55;;;6.43;;
10769;SDS011;5437;50.852;4.438;2022-11-11T03:14:13;9.70;;;7.30;;
10769;SDS011;5437;50.852;4.438;2022-11-11T03:16:39;11.98;;;7.65;;
10769;SDS011;5437;50.852;4.438;2022-11-11T03:19:24;8.38;;;7.38;;
10769;SDS011;5437;50.852;4.438;2022-11-11T03:21:50;11.60;;;7.68;;
10769;SDS011;5437;50.852;4.438;2022-11-11T03:24:16;10.73;;;7.57;;
10769;SDS011;5437;50.852;4.438;2022-11-11T03:26:42;8.73;;;7.05;;
10769;SDS011;5437;50.852;4.438;2022-11-11T03:29:08;11.27;;;7.53;;
10769;SDS011;5437;50.852;4.438;2022-11-11T03:31:34;9.02;;;7.47;;
10769;SDS011;5437;50.852;4.438;2022-11-11T03:34:01;8.80;;;7.07;;
10769;SDS011;5437;50.852;4.438;2022-11-11T03:36:43;8.93;;;7.07;;
10769;SDS011;5437;50.852;4.438;2022-11-11T03:39:28;11.20;;;7.03;;
10769;SDS011;5437;50.852;4.438;2022-11-11T03:41:55;9.65;;;6.82;;
10769;SDS011;5437;50.852;4.438;2022-11-11T03:44:21;9.13;;;6.63;;
10769;SDS011;5437;50.852;4.438;2022-11-11T03:46:47;9.25;;;7.05;;
10769;SDS011;5437;50.852;4.438;2022-11-11T03:49:13;10.75;;;7.25;;
10769;SDS011;5437;50.852;4.438;2022-11-11T03:51:39;8.77;;;6.85;;
10769;SDS011;5437;50.852;4.438;2022-11-11T03:54:05;9.48;;;6.45;;
10769;SDS011;5437;50.852;4.438;2022-11-11T03:56:31;8.85;;;6.88;;
10769;SDS011;5437;50.852;4.438;2022-11-11T03:58:57;6.40;;;5.80;;
10769;SDS011;5437;50.852;4.438;2022-11-11T04:01:23;8.48;;;6.68;;
10769;SDS011;5437;50.852;4.438;2022-11-11T04:04:08;8.43;;;6.50;;
10769;SDS011;5437;50.852;4.438;2022-11-11T04:06:52;8.82;;;6.95;;
10769;SDS011;5437;50.852;4.438;2022-11-11T04:09:37;8.63;;;6.38;;
10769;SDS011;5437;50.852;4.438;2022-11-11T04:12:21;8.85;;;6.38;;
10769;SDS011;5437;50.852;4.438;2022-11-11T04:14:48;8.52;;;5.97;;
10769;SDS011;5437;50.852;4.438;2022-11-11T04:17:33;9.52;;;6.00;;
10769;SDS011;5437;50.852;4.438;2022-11-11T04:19:59;9.93;;;6.32;;
10769;SDS011;5437;50.852;4.438;2022-11-11T04:22:43;8.52;;;5.80;;
10769;SDS011;5437;50.852;4.438;2022-11-11T04:25:09;7.80;;;5.68;;
10769;SDS011;5437;50.852;4.438;2022-11-11T04:27:57;8.40;;;6.03;;
10769;SDS011;5437;50.852;4.438;2022-11-11T04:30:42;7.70;;;5.50;;
10769;SDS011;5437;50.852;4.438;2022-11-11T04:33:08;7.65;;;5.57;;
10769;SDS011;5437;50.852;4.438;2022-11-11T04:35:34;8.63;;;6.15;;
10769;SDS011;5437;50.852;4.438;2022-11-11T04:38:00;7.57;;;5.63;;
10769;SDS011;5437;50.852;4.438;2022-11-11T04:40:45;8.48;;;5.90;;
10769;SDS011;5437;50.852;4.438;2022-11-11T04:43:30;8.77;;;5.75;;
10769;SDS011;5437;50.852;4.438;2022-11-11T04:45:59;7.15;;;5.10;;
10769;SDS011;5437;50.852;4.438;2022-11-11T04:48:25;8.05;;;5.50;;
10769;SDS011;5437;50.852;4.438;2022-11-11T04:50:52;7.38;;;5.47;;
10769;SDS011;5437;50.852;4.438;2022-11-11T04:53:18;6.07;;;5.43;;
10769;SDS011;5437;50.852;4.438;2022-11-11T04:55:44;8.63;;;6.03;;
10769;SDS011;5437;50.852;4.438;2022-11-11T04:58:32;6.25;;;5.38;;
10769;SDS011;5437;50.852;4.438;2022-11-11T05:00:58;8.88;;;6.10;;
10769;SDS011;5437;50.852;4.438;2022-11-11T05:03:24;8.77;;;5.95;;
10769;SDS011;5437;50.852;4.438;2022-11-11T05:05:52;7.53;;;5.20;;
10769;SDS011;5437;50.852;4.438;2022-11-11T05:08:37;10.50;;;5.75;;
10769;SDS011;5437;50.852;4.438;2022-11-11T05:11:26;7.13;;;5.80;;
10769;SDS011;5437;50.852;4.438;2022-11-11T05:13:53;7.15;;;5.38;;
10769;SDS011;5437;50.852;4.438;2022-11-11T05:16:39;6.30;;;5.65;;
10769;SDS011;5437;50.852;4.438;2022-11-11T05:19:24;6.95;;;5.30;;
10769;SDS011;5437;50.852;4.438;2022-11-11T05:22:10;8.10;;;5.60;;
10769;SDS011;5437;50.852;4.438;2022-11-11T05:24:37;6.13;;;5.40;;
10769;SDS011;5437;50.852;4.438;2022-11-11T05:27:22;7.07;;;5.55;;
10769;SDS011;5437;50.852;4.438;2022-11-11T05:29:48;7.50;;;6.10;;
10769;SDS011;5437;50.852;4.438;2022-11-11T05:32:18;6.88;;;5.95;;
10769;SDS011;5437;50.852;4.438;2022-11-11T05:34:44;6.85;;;5.43;;
10769;SDS011;5437;50.852;4.438;2022-11-11T05:37:10;7.07;;;5.70;;
10769;SDS011;5437;50.852;4.438;2022-11-11T05:39:36;7.30;;;5.80;;
10769;SDS011;5437;50.852;4.438;2022-11-11T05:42:02;6.97;;;6.00;;
10769;SDS011;5437;50.852;4.438;2022-11-11T05:44:29;9.48;;;6.72;;
10769;SDS011;5437;50.852;4.438;2022-11-11T05:46:55;8.05;;;6.45;;
10769;SDS011;5437;50.852;4.438;2022-11-11T05:49:21;10.90;;;7.10;;
10769;SDS011;5437;50.852;4.438;2022-11-11T05:51:48;10.57;;;6.80;;
10769;SDS011;5437;50.852;4.438;2022-11-11T05:54:15;9.50;;;6.88;;
10769;SDS011;5437;50.852;4.438;2022-11-11T05:56:41;9.10;;;6.60;;
10769;SDS011;5437;50.852;4.438;2022-11-11T05:59:07;9.15;;;6.70;;
10769;SDS011;5437;50.852;4.438;2022-11-11T06:01:34;7.95;;;6.43;;
10769;SDS011;5437;50.852;4.438;2022-11-11T06:04:00;9.27;;;7.25;;
10769;SDS011;5437;50.852;4.438;2022-11-11T06:06:26;9.77;;;7.45;;
10769;SDS011;5437;50.852;4.438;2022-11-11T06:08:52;10.60;;;7.38;;
10769;SDS011;5437;50.852;4.438;2022-11-11T06:11:18;8.82;;;7.22;;
10769;SDS011;5437;50.852;4.438;2022-11-11T06:13:44;9.40;;;7.80;;
10769;SDS011;5437;50.852;4.438;2022-11-11T06:16:10;10.07;;;7.88;;
10769;SDS011;5437;50.852;4.438;2022-11-11T06:18:37;10.93;;;7.85;;
10769;SDS011;5437;50.852;4.438;2022-11-11T06:21:03;12.50;;;8.00;;
10769;SDS011;5437;50.852;4.438;2022-11-11T06:23:29;11.52;;;8.82;;
10769;SDS011;5437;50.852;4.438;2022-11-11T06:25:55;9.98;;;7.65;;
10769;SDS011;5437;50.852;4.438;2022-11-11T06:28:37;10.75;;;8.10;;
10769;SDS011;5437;50.852;4.438;2022-11-11T06:31:03;11.52;;;8.27;;
10769;SDS011;5437;50.852;4.438;2022-11-11T06:33:31;9.85;;;7.80;;
10769;SDS011;5437;50.852;4.438;2022-11-11T06:35:57;11.10;;;8.55;;
10769;SDS011;5437;50.852;4.438;2022-11-11T06:38:23;10.85;;;7.93;;
10769;SDS011;5437;50.852;4.438;2022-11-11T06:40:49;12.23;;;8.23;;
10769;SDS011;5437;50.852;4.438;2022-11-11T06:43:15;10.25;;;8.40;;
10769;SDS011;5437;50.852;4.438;2022-11-11T06:45:41;11.95;;;8.50;;
10769;SDS011;5437;50.852;4.438;2022-11-11T06:48:07;11.93;;;8.50;;
10769;SDS011;5437;50.852;4.438;2022-11-11T06:50:34;12.75;;;8.65;;
10769;SDS011;5437;50.852;4.438;2022-11-11T06:53:03;10.10;;;8.18;;
10769;SDS011;5437;50.852;4.438;2022-11-11T06:55:30;12.98;;;8.10;;
10769;SDS011;5437;50.852;4.438;2022-11-11T06:58:02;11.05;;;8.80;;
10769;SDS011;5437;50.852;4.438;2022-11-11T07:00:29;13.82;;;8.82;;
10769;SDS011;5437;50.852;4.438;2022-11-11T07:02:55;10.15;;;8.93;;
10769;SDS011;5437;50.852;4.438;2022-11-11T07:05:21;10.57;;;8.45;;
10769;SDS011;5437;50.852;4.438;2022-11-11T07:07:47;12.40;;;8.57;;
10769;SDS011;5437;50.852;4.438;2022-11-11T07:10:13;14.23;;;9.43;;
10769;SDS011;5437;50.852;4.438;2022-11-11T07:12:41;11.88;;;9.32;;
10769;SDS011;5437;50.852;4.438;2022-11-11T07:15:07;13.43;;;9.25;;
10769;SDS011;5437;50.852;4.438;2022-11-11T07:17:33;13.25;;;9.65;;
10769;SDS011;5437;50.852;4.438;2022-11-11T07:19:59;12.45;;;9.40;;
10769;SDS011;5437;50.852;4.438;2022-11-11T07:22:25;11.85;;;9.10;;
10769;SDS011;5437;50.852;4.438;2022-11-11T07:24:51;12.23;;;9.15;;
10769;SDS011;5437;50.852;4.438;2022-11-11T07:27:17;13.43;;;9.15;;
10769;SDS011;5437;50.852;4.438;2022-11-11T07:29:43;10.63;;;8.10;;
10769;SDS011;5437;50.852;4.438;2022-11-11T07:32:09;12.68;;;9.10;;
10769;SDS011;5437;50.852;4.438;2022-11-11T07:34:35;13.85;;;9.55;;
10769;SDS011;5437;50.852;4.438;2022-11-11T07:37:01;12.57;;;9.02;;
10769;SDS011;5437;50.852;4.438;2022-11-11T07:39:27;13.43;;;8.45;;
10769;SDS011;5437;50.852;4.438;2022-11-11T07:41:53;10.70;;;8.85;;
10769;SDS011;5437;50.852;4.438;2022-11-11T07:44:19;12.73;;;8.48;;
10769;SDS011;5437;50.852;4.438;2022-11-11T07:46:45;13.02;;;8.73;;
10769;SDS011;5437;50.852;4.438;2022-11-11T07:49:12;12.57;;;8.88;;
10769;SDS011;5437;50.852;4.438;2022-11-11T07:51:38;12.68;;;8.07;;
10769;SDS011;5437;50.852;4.438;2022-11-11T07:54:04;10.95;;;8.38;;
10769;SDS011;5437;50.852;4.438;2022-11-11T07:56:30;11.10;;;8.13;;
10769;SDS011;5437;50.852;4.438;2022-11-11T07:58:56;11.15;;;7.95;;
10769;SDS011;5437;50.852;4.438;2022-11-11T08:01:22;12.32;;;8.63;;
10769;SDS011;5437;50.852;4.438;2022-11-11T08:03:48;11.07;;;7.88;;
10769;SDS011;5437;50.852;4.438;2022-11-11T08:06:15;11.73;;;8.05;;
10769;SDS011;5437;50.852;4.438;2022-11-11T08:08:41;9.90;;;7.90;;
10769;SDS011;5437;50.852;4.438;2022-11-11T08:11:07;12.02;;;8.02;;
10769;SDS011;5437;50.852;4.438;2022-11-11T08:13:33;11.48;;;7.95;;
10769;SDS011;5437;50.852;4.438;2022-11-11T08:16:12;8.68;;;7.22;;
10769;SDS011;5437;50.852;4.438;2022-11-11T08:18:39;9.93;;;7.00;;
10769;SDS011;5437;50.852;4.438;2022-11-11T08:21:05;9.48;;;7.40;;
10769;SDS011;5437;50.852;4.438;2022-11-11T08:23:32;10.20;;;7.18;;
10769;SDS011;5437;50.852;4.438;2022-11-11T08:25:59;11.38;;;7.28;;
10769;SDS011;5437;50.852;4.438;2022-11-11T08:28:25;9.63;;;7.35;;
10769;SDS011;5437;50.852;4.438;2022-11-11T08:30:52;8.68;;;6.82;;
10769;SDS011;5437;50.852;4.438;2022-11-11T08:33:18;9.93;;;7.07;;
10769;SDS011;5437;50.852;4.438;2022-11-11T08:35:44;10.40;;;7.40;;
10769;SDS011;5437;50.852;4.438;2022-11-11T08:38:10;8.45;;;6.72;;
10769;SDS011;5437;50.852;4.438;2022-11-11T08:40:37;9.48;;;7.22;;
10769;SDS011;5437;50.852;4.438;2022-11-11T08:43:03;7.68;;;6.43;;
10769;SDS011;5437;50.852;4.438;2022-11-11T08:45:29;8.73;;;6.78;;
10769;SDS011;5437;50.852;4.438;2022-11-11T08:47:55;8.27;;;6.32;;
10769;SDS011;5437;50.852;4.438;2022-11-11T08:50:21;7.78;;;6.65;;
10769;SDS011;5437;50.852;4.438;2022-11-11T08:52:48;9.02;;;6.75;;
10769;SDS011;5437;50.852;4.438;2022-11-11T08:55:14;9.02;;;6.80;;
10769;SDS011;5437;50.852;4.438;2022-11-11T08:57:41;7.85;;;6.35;;
10769;SDS011;5437;50.852;4.438;2022-11-11T09:00:07;9.88;;;6.72;;
10769;SDS011;5437;50.852;4.438;2022-11-11T09:02:34;8.82;;;6.32;;
10769;SDS011;5437;50.852;4.438;2022-11-11T09:05:00;8.25;;;6.72;;
10769;SDS011;5437;50.852;4.438;2022-11-11T09:07:26;8.07;;;6.25;;
10769;SDS011;5437;50.852;4.438;2022-11-11T09:09:52;8.25;;;5.90;;
10769;SDS011;5437;50.852;4.438;2022-11-11T09:12:18;8.73;;;6.40;;
10769;SDS011;5437;50.852;4.438;2022-11-11T09:14:44;7.40;;;5.78;;
10769;SDS011;5437;50.852;4.438;2022-11-11T09:17:12;7.00;;;5.65;;
10769;SDS011;5437;50.852;4.438;2022-11-11T09:19:38;6.85;;;5.25;;
10769;SDS011;5437;50.852;4.438;2022-11-11T09:22:04;7.53;;;5.20;;
10769;SDS011;5437;50.852;4.438;2022-11-11T09:24:31;7.43;;;5.05;;
10769;SDS011;5437;50.852;4.438;2022-11-11T09:26:57;6.90;;;5.10;;
10769;SDS011;5437;50.852;4.438;2022-11-11T09:29:24;5.45;;;4.85;;
10769;SDS011;5437;50.852;4.438;2022-11-11T09:31:50;7.63;;;5.13;;
10769;SDS011;5437;50.852;4.438;2022-11-11T09:34:16;7.07;;;4.68;;
10769;SDS011;5437;50.852;4.438;2022-11-11T09:36:42;5.60;;;4.43;;
10769;SDS011;5437;50.852;4.438;2022-11-11T09:39:11;4.75;;;3.88;;
10769;SDS011;5437;50.852;4.438;2022-11-11T09:42:03;5.95;;;3.70;;
10769;SDS011;5437;50.852;4.438;2022-11-11T09:44:38;4.30;;;3.40;;
10769;SDS011;5437;50.852;4.438;2022-11-11T09:52:18;4.10;;;3.20;;
10769;SDS011;5437;50.852;4.438;2022-11-11T09:54:56;3.25;;;2.75;;
10769;SDS011;5437;50.852;4.438;2022-11-11T09:57:28;3.80;;;2.97;;
10769;SDS011;5437;50.852;4.438;2022-11-11T09:59:58;4.38;;;2.80;;
10769;SDS011;5437;50.852;4.438;2022-11-11T10:02:28;3.03;;;2.53;;
10769;SDS011;5437;50.852;4.438;2022-11-11T10:07:25;3.58;;;2.85;;
10769;SDS011;5437;50.852;4.438;2022-11-11T10:09:54;4.05;;;2.47;;
10769;SDS011;5437;50.852;4.438;2022-11-11T10:12:23;2.45;;;2.25;;
10769;SDS011;5437;50.852;4.438;2022-11-11T10:14:53;3.38;;;2.40;;
10769;SDS011;5437;50.852;4.438;2022-11-11T10:22:30;2.85;;;2.17;;
10769;SDS011;5437;50.852;4.438;2022-11-11T10:25:02;3.05;;;2.20;;
10769;SDS011;5437;50.852;4.438;2022-11-11T10:27:30;2.20;;;2.00;;
10769;SDS011;5437;50.852;4.438;2022-11-11T10:29:57;3.58;;;2.03;;
10769;SDS011;5437;50.852;4.438;2022-11-11T10:32:25;1.90;;;1.77;;
10769;SDS011;5437;50.852;4.438;2022-11-11T10:34:52;2.97;;;2.17;;
10769;SDS011;5437;50.852;4.438;2022-11-11T10:37:23;2.53;;;2.30;;
10769;SDS011;5437;50.852;4.438;2022-11-11T10:42:25;3.63;;;1.85;;
10769;SDS011;5437;50.852;4.438;2022-11-11T10:44:53;2.38;;;1.67;;
10769;SDS011;5437;50.852;4.438;2022-11-11T10:50:05;2.20;;;1.65;;
10769;SDS011;5437;50.852;4.438;2022-11-11T10:52:53;2.15;;;1.90;;
10769;SDS011;5437;50.852;4.438;2022-11-11T10:55:31;2.13;;;1.90;;
10769;SDS011;5437;50.852;4.438;2022-11-11T11:00:55;2.17;;;1.63;;
10769;SDS011;5437;50.852;4.438;2022-11-11T11:05:52;1.83;;;1.45;;
10769;SDS011;5437;50.852;4.438;2022-11-11T11:08:21;2.08;;;1.40;;
10769;SDS011;5437;50.852;4.438;2022-11-11T11:10:59;2.70;;;1.55;;
10769;SDS011;5437;50.852;4.438;2022-11-11T11:13:29;2.38;;;1.60;;
10769;SDS011;5437;50.852;4.438;2022-11-11T11:15:57;2.65;;;1.60;;
10769;SDS011;5437;50.852;4.438;2022-11-11T11:18:25;2.03;;;1.40;;
10769;SDS011;5437;50.852;4.438;2022-11-11T11:20:54;1.75;;;1.38;;
10769;SDS011;5437;50.852;4.438;2022-11-11T11:26:06;1.40;;;1.30;;
10769;SDS011;5437;50.852;4.438;2022-11-11T11:28:33;2.88;;;1.50;;
10769;SDS011;5437;50.852;4.438;2022-11-11T11:33:25;1.98;;;1.55;;
10769;SDS011;5437;50.852;4.438;2022-11-11T11:35:51;1.88;;;1.48;;
10769;SDS011;5437;50.852;4.438;2022-11-11T11:38:17;1.67;;;1.40;;
10769;SDS011;5437;50.852;4.438;2022-11-11T11:43:32;1.85;;;1.40;;
10769;SDS011;5437;50.852;4.438;2022-11-11T11:45:59;2.78;;;1.50;;
10769;SDS011;5437;50.852;4.438;2022-11-11T11:51:32;2.35;;;1.52;;
10769;SDS011;5437;50.852;4.438;2022-11-11T11:56:53;1.77;;;1.55;;
10769;SDS011;5437;50.852;4.438;2022-11-11T11:59:27;1.55;;;1.45;;
10769;SDS011;5437;50.852;4.438;2022-11-11T12:08:26;2.92;;;1.55;;
10769;SDS011;5437;50.852;4.438;2022-11-11T12:10:29;1.80;;;1.45;;
10769;SDS011;5437;50.852;4.438;2022-11-11T12:13:07;2.83;;;1.60;;
10769;SDS011;5437;50.852;4.438;2022-11-11T12:15:42;3.55;;;1.50;;
10769;SDS011;5437;50.852;4.438;2022-11-11T12:21:05;1.75;;;1.63;;
10769;SDS011;5437;50.852;4.438;2022-11-11T12:29:06;3.33;;;1.70;;
10769;SDS011;5437;50.852;4.438;2022-11-11T12:31:41;1.65;;;1.55;;
10769;SDS011;5437;50.852;4.438;2022-11-11T12:34:15;1.92;;;1.40;;
10769;SDS011;5437;50.852;4.438;2022-11-11T12:36:48;3.13;;;1.55;;
10769;SDS011;5437;50.852;4.438;2022-11-11T12:39:27;2.53;;;1.70;;
10769;SDS011;5437;50.852;4.438;2022-11-11T12:42:07;1.92;;;1.70;;
10769;SDS011;5437;50.852;4.438;2022-11-11T12:44:39;1.65;;;1.55;;
10769;SDS011;5437;50.852;4.438;2022-11-11T12:47:31;3.58;;;2.10;;
10769;SDS011;5437;50.852;4.438;2022-11-11T12:49:57;1.85;;;1.70;;
10769;SDS011;5437;50.852;4.438;2022-11-11T13:00:15;1.80;;;1.60;;
10769;SDS011;5437;50.852;4.438;2022-11-11T13:02:58;1.88;;;1.30;;
10769;SDS011;5437;50.852;4.438;2022-11-11T13:05:39;2.25;;;1.70;;
10769;SDS011;5437;50.852;4.438;2022-11-11T13:08:35;2.08;;;1.60;;
10769;SDS011;5437;50.852;4.438;2022-11-11T13:14:05;1.92;;;1.67;;
10769;SDS011;5437;50.852;4.438;2022-11-11T13:16:33;3.03;;;1.65;;
10769;SDS011;5437;50.852;4.438;2022-11-11T13:19:01;1.50;;;1.40;;
10769;SDS011;5437;50.852;4.438;2022-11-11T13:21:33;1.75;;;1.42;;
10769;SDS011;5437;50.852;4.438;2022-11-11T13:24:02;2.95;;;1.60;;
10769;SDS011;5437;50.852;4.438;2022-11-11T13:26:31;2.47;;;1.70;;
10769;SDS011;5437;50.852;4.438;2022-11-11T13:29:04;1.77;;;1.65;;
10769;SDS011;5437;50.852;4.438;2022-11-11T13:31:34;1.70;;;1.50;;
10769;SDS011;5437;50.852;4.438;2022-11-11T13:34:04;2.70;;;1.52;;
10769;SDS011;5437;50.852;4.438;2022-11-11T13:36:33;2.30;;;1.52;;
10769;SDS011;5437;50.852;4.438;2022-11-11T13:39:04;1.33;;;1.23;;
10769;SDS011;5437;50.852;4.438;2022-11-11T13:41:31;2.03;;;1.40;;
10769;SDS011;5437;50.852;4.438;2022-11-11T13:43:59;3.47;;;1.58;;
10769;SDS011;5437;50.852;4.438;2022-11-11T13:46:37;1.67;;;1.45;;
10769;SDS011;5437;50.852;4.438;2022-11-11T13:51:59;3.00;;;1.48;;
10769;SDS011;5437;50.852;4.438;2022-11-11T13:54:27;1.98;;;1.50;;
10769;SDS011;5437;50.852;4.438;2022-11-11T13:57:01;1.85;;;1.50;;
10769;SDS011;5437;50.852;4.438;2022-11-11T13:59:30;2.95;;;1.50;;
10769;SDS011;5437;50.852;4.438;2022-11-11T14:05:26;1.92;;;1.58;;
10769;SDS011;5437;50.852;4.438;2022-11-11T14:17:57;2.72;;;1.52;;
10769;SDS011;5437;50.852;4.438;2022-11-11T14:20:39;1.25;;;1.20;;
10769;SDS011;5437;50.852;4.438;2022-11-11T14:23:20;3.17;;;1.38;;
10769;SDS011;5437;50.852;4.438;2022-11-11T14:25:47;2.05;;;1.30;;
10769;SDS011;5437;50.852;4.438;2022-11-11T14:28:25;1.73;;;1.13;;
10769;SDS011;5437;50.852;4.438;2022-11-11T14:30:52;2.03;;;1.23;;
10769;SDS011;5437;50.852;4.438;2022-11-11T14:36:05;1.15;;;1.15;;
10769;SDS011;5437;50.852;4.438;2022-11-11T14:38:43;1.83;;;1.35;;
10769;SDS011;5437;50.852;4.438;2022-11-11T14:44:21;1.98;;;1.40;;
10769;SDS011;5437;50.852;4.438;2022-11-11T14:49:44;1.80;;;1.70;;
10769;SDS011;5437;50.852;4.438;2022-11-11T14:57:31;1.85;;;1.40;;
10769;SDS011;5437;50.852;4.438;2022-11-11T15:00:00;3.40;;;1.70;;
10769;SDS011;5437;50.852;4.438;2022-11-11T15:02:37;1.50;;;1.40;;
10769;SDS011;5437;50.852;4.438;2022-11-11T15:05:06;1.52;;;1.38;;
10769;SDS011;5437;50.852;4.438;2022-11-11T15:07:41;2.70;;;1.27;;
10769;SDS011;5437;50.852;4.438;2022-11-11T15:10:18;2.50;;;1.42;;
10769;SDS011;5437;50.852;4.438;2022-11-11T15:12:57;1.63;;;1.40;;
10769;SDS011;5437;50.852;4.438;2022-11-11T15:15:32;1.90;;;1.50;;
10769;SDS011;5437;50.852;4.438;2022-11-11T15:20:45;3.08;;;1.60;;
10769;SDS011;5437;50.852;4.438;2022-11-11T15:28:45;1.67;;;1.52;;
10769;SDS011;5437;50.852;4.438;2022-11-11T15:34:22;2.97;;;1.50;;
10769;SDS011;5437;50.852;4.438;2022-11-11T15:36:54;3.22;;;1.80;;
10769;SDS011;5437;50.852;4.438;2022-11-11T15:39:22;2.83;;;1.92;;
10769;SDS011;5437;50.852;4.438;2022-11-11T15:41:52;2.70;;;1.83;;
10769;SDS011;5437;50.852;4.438;2022-11-11T15:44:27;2.80;;;2.10;;
10769;SDS011;5437;50.852;4.438;2022-11-11T15:46:54;2.28;;;1.80;;
10769;SDS011;5437;50.852;4.438;2022-11-11T15:52:07;2.88;;;1.80;;
10769;SDS011;5437;50.852;4.438;2022-11-11T15:54:36;3.03;;;2.00;;
10769;SDS011;5437;50.852;4.438;2022-11-11T15:59:52;2.20;;;2.00;;
10769;SDS011;5437;50.852;4.438;2022-11-11T16:02:19;2.00;;;1.85;;
10769;SDS011;5437;50.852;4.438;2022-11-11T16:04:59;2.17;;;2.00;;
10769;SDS011;5437;50.852;4.438;2022-11-11T16:07:28;2.92;;;2.00;;
10769;SDS011;5437;50.852;4.438;2022-11-11T16:09:59;3.20;;;2.47;;
10769;SDS011;5437;50.852;4.438;2022-11-11T16:12:31;4.03;;;2.20;;
10769;SDS011;5437;50.852;4.438;2022-11-11T16:15:07;3.30;;;2.15;;
10769;SDS011;5437;50.852;4.438;2022-11-11T16:17:39;2.22;;;2.03;;
10769;SDS011;5437;50.852;4.438;2022-11-11T16:20:12;2.80;;;2.20;;
10769;SDS011;5437;50.852;4.438;2022-11-11T16:22:39;3.00;;;2.70;;
10769;SDS011;5437;50.852;4.438;2022-11-11T16:25:11;3.92;;;2.90;;
10769;SDS011;5437;50.852;4.438;2022-11-11T16:27:38;3.85;;;3.25;;
10769;SDS011;5437;50.852;4.438;2022-11-11T16:32:49;5.35;;;3.20;;
10769;SDS011;5437;50.852;4.438;2022-11-11T16:35:22;4.28;;;3.30;;
10769;SDS011;5437;50.852;4.438;2022-11-11T16:37:49;5.07;;;3.45;;
10769;SDS011;5437;50.852;4.438;2022-11-11T16:46:14;5.63;;;5.05;;
10769;SDS011;5437;50.852;4.438;2022-11-11T16:51:09;6.80;;;5.53;;
10769;SDS011;5437;50.852;4.438;2022-11-11T16:53:40;6.60;;;5.75;;
10769;SDS011;5437;50.852;4.438;2022-11-11T16:56:13;6.88;;;5.07;;
10769;SDS011;5437;50.852;4.438;2022-11-11T16:58:41;6.95;;;5.10;;
10769;SDS011;5437;50.852;4.438;2022-11-11T17:01:10;6.82;;;5.50;;
10769;SDS011;5437;50.852;4.438;2022-11-11T17:03:36;6.82;;;4.60;;
10769;SDS011;5437;50.852;4.438;2022-11-11T17:06:43;8.35;;;5.38;;
10769;SDS011;5437;50.852;4.438;2022-11-11T17:11:53;6.50;;;4.20;;
10769;SDS011;5437;50.852;4.438;2022-11-11T17:14:21;6.50;;;4.10;;
10769;SDS011;5437;50.852;4.438;2022-11-11T17:16:48;4.65;;;4.03;;
10769;SDS011;5437;50.852;4.438;2022-11-11T17:19:14;4.85;;;4.07;;
10769;SDS011;5437;50.852;4.438;2022-11-11T17:21:40;5.20;;;3.60;;
10769;SDS011;5437;50.852;4.438;2022-11-11T17:24:11;5.60;;;3.80;;